Time;durP1;ratioP1;P1;durP2;ratioP2;P2;SDS_P1;SDS_P2;PMS_P1;PMS_P2;Temp;Humidity;BMP_temperature;BMP_pressure;BME280_temperature;BME280_humidity;BME280_pressure;Samples;Min_cycle;Max_cycle;Signal;HPM_P1;HPM_P2
2023/05/10 00:00:16;;;;;;;;;;;;;;;16.64;69.94;92167.44;2048257;70;20129;-73
2023/05/10 00:02:42;;;;;;;;;;;;;;;16.55;70.90;92165.72;2048662;70;20063;-73
2023/05/10 00:05:08;;;;;;;;;;;;;;;16.56;70.78;92164.34;2048747;70;20406;-73
2023/05/10 00:07:35;;;;;;;;;;;;;;;16.45;70.52;92169.00;2048719;70;20059;-74
2023/05/10 00:10:00;;;;;;;;;;;;;;;16.45;71.12;92157.63;2048553;70;20075;-73
2023/05/10 00:12:26;;;;;;;;;;;;;;;16.48;70.06;92159.13;2048884;70;20093;-73
2023/05/10 00:14:51;;;;;;;;;;;;;;;16.34;71.79;92160.81;2048787;70;20087;-73
2023/05/10 00:17:17;;;;;;;;;;;;;;;16.38;71.74;92153.13;2048867;70;20049;-73
2023/05/10 00:19:48;;;;;;;;;;;;;;;16.36;71.98;92155.94;2048534;70;20058;-74
2023/05/10 00:22:16;;;;;;;;;;;;;;;16.43;70.46;92149.03;2049016;70;20102;-75
2023/05/10 00:24:42;;;;;;;;;;;;;;;16.46;70.09;92147.00;2048661;69;20496;-74
2023/05/10 00:27:07;;;;;;;;;;;;;;;16.32;71.96;92150.13;2049334;70;20410;-74
2023/05/10 00:29:34;;;;;;;;;;;;;;;16.22;72.87;92146.97;2048854;70;20055;-73
2023/05/10 00:32:00;;;;;;;;;;;;;;;16.28;72.25;92141.47;2048824;70;20174;-74
2023/05/10 00:34:27;;;;;;;;;;;;;;;16.36;71.78;92147.41;2049361;70;20562;-73
2023/05/10 00:36:52;;;;;;;;;;;;;;;16.30;72.08;92144.38;2049286;70;20063;-74
2023/05/10 00:39:18;;;;;;;;;;;;;;;16.32;71.93;92138.75;2048431;70;20100;-73
2023/05/10 00:41:45;;;;;;;;;;;;;;;16.47;70.24;92131.38;2049011;70;20521;-73
2023/05/10 00:44:11;;;;;;;;;;;;;;;16.36;71.62;92133.22;2068634;69;20836;-72
2023/05/10 00:46:36;;;;;;;;;;;;;;;16.42;70.09;92129.81;2055610;69;20489;-74
2023/05/10 00:49:02;;;;;;;;;;;;;;;16.38;70.99;92138.94;2055776;69;20061;-74
2023/05/10 00:51:29;;;;;;;;;;;;;;;16.33;71.28;92134.53;2055657;70;20169;-73
2023/05/10 00:53:55;;;;;;;;;;;;;;;15.91;73.67;92139.59;2068684;69;20211;-74
2023/05/10 00:56:23;;;;;;;;;;;;;;;16.07;72.71;92142.94;2055899;70;20054;-74
2023/05/10 00:58:48;;;;;;;;;;;;;;;16.07;73.23;92139.38;2055799;69;20073;-72
2023/05/10 01:01:14;;;;;;;;;;;;;;;16.23;72.63;92145.59;2055612;70;20432;-72
2023/05/10 01:03:40;;;;;;;;;;;;;;;16.22;71.81;92138.44;2055518;70;20265;-73
2023/05/10 01:06:15;;;;;;;;;;;;;;;16.11;72.04;92142.34;2055642;69;20054;-73
2023/05/10 01:08:55;;;;;;;;;;;;;;;15.25;77.31;92143.06;2067470;69;20435;-74
2023/05/10 01:11:25;;;;;;;;;;;;;;;15.73;75.30;92145.41;2068658;69;20053;-73
2023/05/10 01:13:56;;;;;;;;;;;;;;;15.78;74.49;92149.09;2065990;69;20108;-74
2023/05/10 01:16:22;;;;;;;;;;;;;;;15.91;74.41;92148.13;2068674;69;20047;-75
2023/05/10 01:18:52;;;;;;;;;;;;;;;15.99;73.66;92154.78;2065833;69;20497;-74
2023/05/10 01:21:33;;;;;;;;;;;;;;;16.04;73.66;92160.59;2055780;70;20058;-73
2023/05/10 01:23:58;;;;;;;;;;;;;;;16.06;73.42;92161.38;2055607;70;20493;-73
2023/05/10 01:26:24;;;;;;;;;;;;;;;16.09;72.79;92159.34;2055753;69;20110;-73
2023/05/10 01:29:07;;;;;;;;;;;;;;;15.99;73.83;92163.31;2055852;70;20053;-75
2023/05/10 01:31:53;;;;;;;;;;;;;;;16.07;73.02;92168.50;2055686;70;20046;-74
2023/05/10 01:34:36;;;;;;;;;;;;;;;16.07;73.06;92167.78;2055747;70;20102;-74
2023/05/10 01:37:09;;;;;;;;;;;;;;;15.98;73.44;92172.47;2065818;69;20489;-74
2023/05/10 01:39:55;;;;;;;;;;;;;;;16.02;73.49;92175.44;2055687;69;20145;-73
2023/05/10 01:42:22;;;;;;;;;;;;;;;16.05;72.67;92173.41;2068564;69;20141;-74
2023/05/10 01:44:51;;;;;;;;;;;;;;;16.08;72.17;92174.91;2055778;69;20093;-73
2023/05/10 01:47:28;;;;;;;;;;;;;;;15.94;73.70;92173.06;2055888;69;20214;-73
2023/05/10 01:49:58;;;;;;;;;;;;;;;15.93;73.66;92176.56;2055778;69;20042;-74
2023/05/10 01:52:48;;;;;;;;;;;;;;;15.91;73.81;92182.19;2055769;69;20066;-75
2023/05/10 01:55:20;;;;;;;;;;;;;;;15.96;72.62;92181.66;2055685;69;20053;-75
2023/05/10 01:57:48;;;;;;;;;;;;;;;15.72;74.38;92175.91;2055817;70;20153;-74
2023/05/10 02:00:16;;;;;;;;;;;;;;;15.80;73.80;92175.41;2055748;69;20051;-73
2023/05/10 02:02:47;;;;;;;;;;;;;;;15.42;76.36;92172.72;2055724;69;20154;-73
2023/05/10 02:05:15;;;;;;;;;;;;;;;15.30;76.69;92171.56;2068411;69;20101;-73
2023/05/10 02:07:44;;;;;;;;;;;;;;;15.57;75.35;92176.03;2055728;69;20081;-73
2023/05/10 02:10:11;;;;;;;;;;;;;;;15.57;74.21;92173.91;2055854;70;20082;-74
2023/05/10 02:12:44;;;;;;;;;;;;;;;15.71;74.26;92165.19;2055927;70;20137;-73
2023/05/10 02:15:12;;;;;;;;;;;;;;;15.78;74.04;92171.81;2068850;69;20070;-74
2023/05/10 02:17:38;;;;;;;;;;;;;;;15.78;73.11;92180.31;2068810;69;20073;-75
2023/05/10 02:20:06;;;;;;;;;;;;;;;15.77;73.25;92173.91;2068230;69;20061;-74
2023/05/10 02:22:38;;;;;;;;;;;;;;;15.73;73.63;92168.84;2055785;70;20050;-74
2023/05/10 02:25:09;;;;;;;;;;;;;;;15.58;74.29;92175.41;2055750;70;20077;-75
2023/05/10 02:27:35;;;;;;;;;;;;;;;15.68;73.00;92170.09;2068913;69;20054;-74
2023/05/10 02:30:05;;;;;;;;;;;;;;;15.66;72.88;92175.69;2055758;70;20046;-73
2023/05/10 02:32:32;;;;;;;;;;;;;;;15.55;73.34;92167.47;2055477;69;20058;-74
2023/05/10 02:35:00;;;;;;;;;;;;;;;15.65;72.81;92171.38;2055649;70;20046;-73
2023/05/10 02:37:30;;;;;;;;;;;;;;;15.49;73.71;92182.19;2068766;69;20258;-75
2023/05/10 02:39:57;;;;;;;;;;;;;;;15.50;73.36;92183.63;2068354;69;20464;-74
2023/05/10 02:42:29;;;;;;;;;;;;;;;15.60;72.64;92183.25;2055436;69;20091;-74
2023/05/10 02:44:58;;;;;;;;;;;;;;;15.54;73.44;92183.75;2068461;69;20046;-74
2023/05/10 02:47:23;;;;;;;;;;;;;;;15.55;72.34;92190.16;2068323;69;20508;-73
2023/05/10 02:49:49;;;;;;;;;;;;;;;15.70;71.08;92190.00;2068203;69;20063;-74
2023/05/10 02:52:16;;;;;;;;;;;;;;;15.55;72.31;92195.84;2055405;69;20189;-72
2023/05/10 02:54:44;;;;;;;;;;;;;;;15.49;72.62;92197.09;2068274;69;20492;-73
2023/05/10 02:57:12;;;;;;;;;;;;;;;15.54;71.90;92195.09;2065550;69;20205;-73
2023/05/10 02:59:42;;;;;;;;;;;;;;;15.34;73.18;92200.78;2055728;69;20523;-72
2023/05/10 03:02:10;;;;;;;;;;;;;;;15.44;73.06;92206.09;2055330;70;20062;-72
2023/05/10 03:04:35;;;;;;;;;;;;;;;15.56;72.28;92211.47;2068485;69;20038;-72
2023/05/10 03:07:01;;;;;;;;;;;;;;;15.39;73.26;92204.50;2055432;70;20060;-73
2023/05/10 03:09:27;;;;;;;;;;;;;;;15.42;72.90;92209.59;2055330;69;20215;-72
2023/05/10 03:12:05;;;;;;;;;;;;;;;15.47;72.31;92207.63;2055470;70;20504;-72
2023/05/10 03:14:30;;;;;;;;;;;;;;;15.47;71.90;92211.19;2068393;69;20536;-73
2023/05/10 03:16:56;;;;;;;;;;;;;;;15.37;72.57;92210.81;2068284;69;20049;-74
2023/05/10 03:19:39;;;;;;;;;;;;;;;15.36;72.50;92208.66;2068393;69;20492;-74
2023/05/10 03:22:08;;;;;;;;;;;;;;;15.32;72.69;92205.69;2068410;69;20477;-74
2023/05/10 03:24:36;;;;;;;;;;;;;;;15.31;72.11;92204.94;2068353;69;20221;-73
2023/05/10 03:27:04;;;;;;;;;;;;;;;15.29;72.67;92204.88;2068439;69;20043;-74
2023/05/10 03:29:31;;;;;;;;;;;;;;;15.28;72.62;92208.38;2068404;69;20127;-74
2023/05/10 03:31:59;;;;;;;;;;;;;;;15.19;73.42;92199.56;2055507;69;20081;-74
2023/05/10 03:34:24;;;;;;;;;;;;;;;15.22;72.47;92195.44;2068310;69;20108;-73
2023/05/10 03:36:50;;;;;;;;;;;;;;;15.13;72.32;92201.47;2055474;69;20073;-73
2023/05/10 03:39:17;;;;;;;;;;;;;;;15.22;71.73;92201.09;2068298;69;20433;-74
2023/05/10 03:41:48;;;;;;;;;;;;;;;15.21;70.73;92211.00;2068494;69;20091;-73
2023/05/10 03:44:14;;;;;;;;;;;;;;;15.10;71.19;92211.25;2055475;70;20054;-74
2023/05/10 03:46:39;;;;;;;;;;;;;;;15.02;71.23;92199.63;2055419;69;20075;-73
2023/05/10 03:49:05;;;;;;;;;;;;;;;14.88;72.37;92214.00;2068394;69;20046;-74
2023/05/10 03:51:31;;;;;;;;;;;;;;;15.05;71.18;92221.72;2055491;70;20058;-74
2023/05/10 03:53:56;;;;;;;;;;;;;;;14.94;72.12;92206.47;2068204;69;20484;-74
2023/05/10 03:56:22;;;;;;;;;;;;;;;15.00;71.47;92223.69;2068262;69;20050;-74
2023/05/10 03:58:48;;;;;;;;;;;;;;;14.90;72.24;92223.31;2068271;69;20070;-73
2023/05/10 04:01:13;;;;;;;;;;;;;;;14.99;71.29;92225.06;2055297;70;20058;-72
2023/05/10 04:03:39;;;;;;;;;;;;;;;14.94;71.89;92231.97;2055307;70;20111;-73
2023/05/10 04:06:05;;;;;;;;;;;;;;;14.92;71.33;92231.16;2068418;69;20105;-73
2023/05/10 04:08:31;;;;;;;;;;;;;;;14.86;71.67;92234.50;2065535;69;20054;-73
2023/05/10 04:11:07;;;;;;;;;;;;;;;14.86;71.76;92230.94;2068115;69;20054;-73
2023/05/10 04:13:32;;;;;;;;;;;;;;;14.83;72.17;92235.06;2068269;69;20058;-73
2023/05/10 04:15:58;;;;;;;;;;;;;;;14.81;72.02;92232.91;2055347;69;20053;-73
2023/05/10 04:18:23;;;;;;;;;;;;;;;14.79;72.68;92224.31;2055327;70;20495;-74
2023/05/10 04:20:49;;;;;;;;;;;;;;;14.94;71.98;92231.97;2055420;70;20078;-73
2023/05/10 04:23:16;;;;;;;;;;;;;;;14.89;72.38;92238.88;2055232;69;20520;-72
2023/05/10 04:25:42;;;;;;;;;;;;;;;14.80;73.05;92237.13;2068133;69;20058;-73
2023/05/10 04:28:07;;;;;;;;;;;;;;;14.82;72.88;92237.19;2055243;70;20388;-74
2023/05/10 04:30:33;;;;;;;;;;;;;;;14.84;72.96;92245.03;2055197;70;20445;-73
2023/05/10 04:32:59;;;;;;;;;;;;;;;14.83;73.06;92235.06;2068119;69;20057;-74
2023/05/10 04:35:26;;;;;;;;;;;;;;;14.79;73.48;92237.75;2055230;70;20054;-74
2023/05/10 04:37:52;;;;;;;;;;;;;;;14.84;73.51;92240.06;2065290;69;20116;-75
2023/05/10 04:40:18;;;;;;;;;;;;;;;14.84;74.00;92231.56;2055106;70;20457;-72
2023/05/10 04:42:43;;;;;;;;;;;;;;;14.95;73.02;92236.25;2055150;70;20131;-74
2023/05/10 04:45:09;;;;;;;;;;;;;;;14.97;73.03;92244.81;2055158;70;20166;-73
2023/05/10 04:47:35;;;;;;;;;;;;;;;15.02;72.38;92244.97;2055279;70;20078;-73
2023/05/10 04:50:01;;;;;;;;;;;;;;;15.09;71.94;92249.50;2055271;70;20074;-73
2023/05/10 04:52:27;;;;;;;;;;;;;;;15.07;72.38;92240.91;2068134;69;20054;-74
2023/05/10 04:54:52;;;;;;;;;;;;;;;15.13;71.50;92241.16;2055127;70;20485;-75
2023/05/10 04:57:19;;;;;;;;;;;;;;;15.11;72.68;92250.28;2055556;69;20457;-74
2023/05/10 04:59:44;;;;;;;;;;;;;;;15.07;72.58;92249.41;2055224;70;20504;-74
2023/05/10 05:02:10;;;;;;;;;;;;;;;15.07;72.76;92252.25;2055336;70;20501;-74
2023/05/10 05:04:36;;;;;;;;;;;;;;;14.98;73.52;92259.72;2055288;70;20058;-74
2023/05/10 05:07:02;;;;;;;;;;;;;;;14.63;74.58;92255.59;2055139;69;20053;-74
2023/05/10 05:09:27;;;;;;;;;;;;;;;14.74;74.18;92259.53;2055038;69;20439;-73
2023/05/10 05:11:54;;;;;;;;;;;;;;;14.90;73.37;92260.16;2055171;70;20082;-74
2023/05/10 05:14:20;;;;;;;;;;;;;;;15.06;73.20;92262.88;2055628;69;20155;-73
2023/05/10 05:16:47;;;;;;;;;;;;;;;15.10;73.40;92265.13;2055647;70;20055;-74
2023/05/10 05:19:13;;;;;;;;;;;;;;;15.16;73.54;92260.41;2055576;70;20047;-74
2023/05/10 05:21:38;;;;;;;;;;;;;;;15.22;73.18;92260.63;2055761;70;20464;-74
2023/05/10 05:24:04;;;;;;;;;;;;;;;15.29;72.48;92255.19;2055619;70;20054;-74
2023/05/10 05:26:30;;;;;;;;;;;;;;;15.39;70.94;92255.53;2055597;70;20516;-74
2023/05/10 05:28:56;;;;;;;;;;;;;;;15.10;72.98;92265.13;2055621;69;20054;-74
2023/05/10 05:31:21;;;;;;;;;;;;;;;14.26;76.12;92264.00;2055850;70;20064;-74
2023/05/10 05:33:47;;;;;;;;;;;;;;;14.55;75.91;92260.22;2068406;69;20050;-74
2023/05/10 05:36:12;;;;;;;;;;;;;;;14.73;74.62;92258.81;2068622;69;20572;-73
2023/05/10 05:38:39;;;;;;;;;;;;;;;15.03;73.58;92264.19;2055656;70;20047;-73
2023/05/10 05:41:06;;;;;;;;;;;;;;;15.25;72.51;92252.91;2055569;69;20445;-74
2023/05/10 05:43:31;;;;;;;;;;;;;;;15.22;73.38;92259.91;2055513;70;20457;-74
2023/05/10 05:45:57;;;;;;;;;;;;;;;15.34;72.76;92256.78;2055731;69;20046;-74
2023/05/10 05:48:23;;;;;;;;;;;;;;;15.31;73.08;92258.84;2068430;69;20149;-74
2023/05/10 05:50:48;;;;;;;;;;;;;;;15.47;72.23;92267.19;2055699;69;20589;-74
2023/05/10 05:53:14;;;;;;;;;;;;;;;15.45;72.01;92264.28;2055916;70;20051;-74
2023/05/10 05:55:39;;;;;;;;;;;;;;;15.33;72.80;92264.56;2055634;69;20069;-74
2023/05/10 05:58:05;;;;;;;;;;;;;;;15.41;71.79;92266.97;2055692;69;20053;-73
2023/05/10 06:00:30;;;;;;;;;;;;;;;15.41;71.00;92267.69;2068406;69;20517;-73
2023/05/10 06:02:57;;;;;;;;;;;;;;;15.30;73.06;92276.47;2055745;70;20054;-73
2023/05/10 06:05:22;;;;;;;;;;;;;;;15.30;73.03;92273.66;2055590;70;20481;-74
2023/05/10 06:07:48;;;;;;;;;;;;;;;15.35;72.15;92276.00;2055684;70;20057;-75
2023/05/10 06:10:13;;;;;;;;;;;;;;;15.49;71.60;92281.44;2055503;70;20058;-75
2023/05/10 06:12:40;;;;;;;;;;;;;;;15.56;72.04;92271.75;2055541;70;20082;-75
2023/05/10 06:15:06;;;;;;;;;;;;;;;15.39;72.92;92278.22;2068450;69;20135;-76
2023/05/10 06:17:33;;;;;;;;;;;;;;;15.32;73.23;92274.47;2068625;69;20120;-74
2023/05/10 06:19:58;;;;;;;;;;;;;;;15.53;72.25;92273.06;2055529;70;20116;-74
2023/05/10 06:22:24;;;;;;;;;;;;;;;15.31;72.35;92275.84;2055760;69;20066;-74
2023/05/10 06:24:51;;;;;;;;;;;;;;;15.49;71.98;92285.00;2055440;70;20198;-75
2023/05/10 06:27:17;;;;;;;;;;;;;;;15.41;72.17;92287.56;2068447;69;20659;-76
2023/05/10 06:29:43;;;;;;;;;;;;;;;15.45;72.26;92292.66;2055293;70;20055;-75
2023/05/10 06:32:08;;;;;;;;;;;;;;;15.77;71.26;92287.44;2068398;69;20136;-75
2023/05/10 06:34:34;;;;;;;;;;;;;;;16.02;70.74;92289.00;2055770;70;20397;-74
2023/05/10 06:37:00;;;;;;;;;;;;;;;16.14;70.27;92280.88;2055508;70;20078;-74
2023/05/10 06:39:26;;;;;;;;;;;;;;;16.26;70.03;92289.06;2055414;69;20050;-74
2023/05/10 06:41:52;;;;;;;;;;;;;;;16.41;70.19;92284.59;2068343;69;20484;-74
2023/05/10 06:44:18;;;;;;;;;;;;;;;16.44;69.41;92286.84;2068478;69;20073;-74
2023/05/10 06:46:44;;;;;;;;;;;;;;;16.51;68.48;92285.66;2055854;69;20450;-74
2023/05/10 06:49:09;;;;;;;;;;;;;;;16.68;66.56;92289.75;2065595;69;20058;-75
2023/05/10 06:51:35;;;;;;;;;;;;;;;16.67;67.91;92287.56;2068538;69;20080;-74
2023/05/10 06:54:03;;;;;;;;;;;;;;;16.53;68.73;92294.22;2055389;70;20082;-75
2023/05/10 06:56:28;;;;;;;;;;;;;;;16.42;67.45;92294.56;2055530;70;20042;-75
2023/05/10 06:58:53;;;;;;;;;;;;;;;16.52;67.17;92289.94;2068415;69;20058;-75
2023/05/10 07:01:19;;;;;;;;;;;;;;;16.76;65.88;92298.53;2055657;69;20148;-75
2023/05/10 07:03:45;;;;;;;;;;;;;;;16.83;67.42;92290.94;2055880;70;20047;-75
2023/05/10 07:06:11;;;;;;;;;;;;;;;16.59;67.23;92290.88;2055856;70;20436;-75
2023/05/10 07:08:37;;;;;;;;;;;;;;;16.81;67.75;92288.03;2055554;70;20054;-75
2023/05/10 07:11:03;;;;;;;;;;;;;;;16.81;66.98;92298.66;2055352;70;20131;-75
2023/05/10 07:13:33;;;;;;;;;;;;;;;17.07;66.43;92302.34;2068423;69;20042;-76
2023/05/10 07:15:58;;;;;;;;;;;;;;;17.01;67.45;92297.19;2055549;70;20055;-74
2023/05/10 07:18:24;;;;;;;;;;;;;;;16.91;65.73;92296.16;2055752;69;20054;-75
2023/05/10 07:20:52;;;;;;;;;;;;;;;16.74;65.86;92289.97;2068582;69;20452;-75
2023/05/10 07:23:17;;;;;;;;;;;;;;;16.83;64.90;92293.78;2055355;70;20409;-74
2023/05/10 07:25:51;;;;;;;;;;;;;;;17.11;64.84;92299.63;2055380;70;20061;-74
2023/05/10 07:28:16;;;;;;;;;;;;;;;17.01;63.82;92299.31;2055507;69;20054;-77
2023/05/10 07:30:42;;;;;;;;;;;;;;;16.98;64.15;92304.19;2055589;70;20053;-74
2023/05/10 07:33:08;;;;;;;;;;;;;;;16.67;62.21;92299.63;2055473;70;20051;-75
2023/05/10 07:35:34;;;;;;;;;;;;;;;16.82;63.01;92306.56;2055225;70;20073;-75
2023/05/10 07:37:59;;;;;;;;;;;;;;;16.86;63.54;92301.00;2055571;69;20447;-76
2023/05/10 07:40:25;;;;;;;;;;;;;;;16.80;62.13;92305.75;2055280;69;20055;-73
2023/05/10 07:42:51;;;;;;;;;;;;;;;16.87;63.24;92308.13;2059049;69;20170;-75
2023/05/10 07:45:16;;;;;;;;;;;;;;;16.90;63.17;92308.91;2048801;70;20451;-76
2023/05/10 07:47:42;;;;;;;;;;;;;;;16.92;62.64;92314.66;2048147;70;20055;-75
2023/05/10 07:50:07;;;;;;;;;;;;;;;16.92;63.83;92306.13;2048846;70;20047;-74
2023/05/10 07:52:33;;;;;;;;;;;;;;;17.01;63.99;92305.72;2048968;70;20059;-76
2023/05/10 07:55:00;;;;;;;;;;;;;;;17.02;63.72;92312.84;2048057;70;20051;-74
2023/05/10 07:57:25;;;;;;;;;;;;;;;17.05;63.56;92316.50;2048696;70;20414;-76
2023/05/10 07:59:50;;;;;;;;;;;;;;;17.11;62.93;92316.69;2048833;70;20164;-78
2023/05/10 08:02:16;;;;;;;;;;;;;;;17.19;63.78;92316.22;2048808;70;20047;-76
2023/05/10 08:04:41;;;;;;;;;;;;;;;17.25;64.50;92317.09;2048747;70;20047;-76
2023/05/10 08:07:08;;;;;;;;;;;;;;;17.38;63.57;92315.34;2048690;70;20074;-76
2023/05/10 08:09:35;;;;;;;;;;;;;;;17.38;64.82;92320.31;2048590;70;20501;-78
2023/05/10 08:12:01;;;;;;;;;;;;;;;17.12;63.99;92320.25;2048731;69;20171;-78
2023/05/10 08:14:28;;;;;;;;;;;;;;;16.86;62.15;92320.91;2048786;70;20084;-78
2023/05/10 08:16:55;;;;;;;;;;;;;;;16.97;61.09;92316.97;2048115;70;20067;-78
2023/05/10 08:19:21;;;;;;;;;;;;;;;17.23;61.31;92317.06;2048763;70;20067;-77
2023/05/10 08:21:48;;;;;;;;;;;;;;;17.54;61.70;92323.63;2048176;70;20043;-75
2023/05/10 08:24:13;;;;;;;;;;;;;;;17.72;62.44;92324.16;2048584;70;20442;-75
2023/05/10 08:26:39;;;;;;;;;;;;;;;17.80;63.55;92320.13;2049096;70;20051;-74
2023/05/10 08:29:04;;;;;;;;;;;;;;;17.74;60.98;92317.84;2048883;70;20051;-77
2023/05/10 08:31:32;;;;;;;;;;;;;;;17.87;61.80;92308.25;2048741;70;20505;-79
2023/05/10 08:33:58;;;;;;;;;;;;;;;18.11;61.14;92310.28;2048619;70;20055;-77
2023/05/10 08:36:24;;;;;;;;;;;;;;;18.28;61.17;92312.91;2048653;70;20047;-77
2023/05/10 08:38:50;;;;;;;;;;;;;;;18.11;62.14;92316.72;2048629;70;20047;-76
2023/05/10 08:41:17;;;;;;;;;;;;;;;18.37;60.18;92308.13;2048735;70;20043;-79
2023/05/10 08:43:45;;;;;;;;;;;;;;;18.34;59.92;92318.03;2054434;70;20050;-75
2023/05/10 08:46:14;;;;;;;;;;;;;;;18.48;60.38;92314.81;2055232;70;20084;-76
2023/05/10 08:48:41;;;;;;;;;;;;;;;18.37;58.75;92304.53;2068614;69;20145;-78
2023/05/10 08:51:08;;;;;;;;;;;;;;;18.51;59.19;92313.47;2055680;70;20239;-76
2023/05/10 08:53:36;;;;;;;;;;;;;;;18.51;59.29;92311.34;2055651;70;20114;-76
2023/05/10 08:56:03;;;;;;;;;;;;;;;18.72;59.03;92306.88;2055668;69;20046;-75
2023/05/10 08:58:29;;;;;;;;;;;;;;;18.72;61.21;92312.59;2055685;69;20053;-76
2023/05/10 09:00:55;;;;;;;;;;;;;;;18.70;61.35;92312.56;2068648;69;20436;-74
2023/05/10 09:03:21;;;;;;;;;;;;;;;18.84;60.37;92311.44;2055763;70;20678;-77
2023/05/10 09:05:47;;;;;;;;;;;;;;;18.86;61.16;92306.50;2068765;69;20074;-77
2023/05/10 09:08:16;;;;;;;;;;;;;;;18.79;61.37;92313.47;2055448;70;20124;-75
2023/05/10 09:10:43;;;;;;;;;;;;;;;18.88;61.51;92312.28;2055517;70;20120;-77
2023/05/10 09:13:09;;;;;;;;;;;;;;;18.86;61.11;92314.34;2068663;69;20046;-77
2023/05/10 09:15:35;;;;;;;;;;;;;;;18.90;60.00;92318.00;2055693;70;20509;-78
2023/05/10 09:18:03;;;;;;;;;;;;;;;18.93;60.94;92315.94;2055699;69;20046;-77
2023/05/10 09:20:29;;;;;;;;;;;;;;;18.92;61.32;92320.19;2055484;70;20049;-77
2023/05/10 09:22:54;;;;;;;;;;;;;;;18.80;62.14;92320.63;2068620;69;20047;-76
2023/05/10 09:25:20;;;;;;;;;;;;;;;18.92;60.56;92320.94;2055478;70;20058;-76
2023/05/10 09:27:47;;;;;;;;;;;;;;;19.01;60.16;92330.38;2055544;69;20058;-76
2023/05/10 09:30:18;;;;;;;;;;;;;;;18.85;62.33;92330.00;2055633;69;20567;-76
2023/05/10 09:32:45;;;;;;;;;;;;;;;18.78;62.49;92326.25;2068583;69;20445;-75
2023/05/10 09:35:14;;;;;;;;;;;;;;;18.64;61.25;92334.44;2055531;70;20507;-74
2023/05/10 09:37:43;;;;;;;;;;;;;;;18.81;58.86;92335.59;2068569;69;20046;-75
2023/05/10 09:40:14;;;;;;;;;;;;;;;18.11;57.07;92336.66;2055455;70;20058;-75
2023/05/10 09:42:42;;;;;;;;;;;;;;;16.67;59.94;92333.75;2068469;69;20161;-75
2023/05/10 09:45:09;;;;;;;;;;;;;;;17.58;58.31;92340.09;2055596;70;20047;-74
2023/05/10 09:47:35;;;;;;;;;;;;;;;17.86;58.01;92337.38;2055512;70;20084;-75
2023/05/10 09:50:04;;;;;;;;;;;;;;;18.15;58.27;92333.91;2068530;69;20081;-75
2023/05/10 09:52:45;;;;;;;;;;;;;;;18.17;59.27;92336.09;2055683;70;20491;-75
2023/05/10 09:55:10;;;;;;;;;;;;;;;17.62;57.63;92343.06;2055444;70;20055;-75
2023/05/10 09:57:36;;;;;;;;;;;;;;;18.02;57.80;92337.81;2055568;69;20133;-75
2023/05/10 10:00:04;;;;;;;;;;;;;;;18.10;59.37;92340.16;2055458;70;20153;-76
2023/05/10 10:02:40;;;;;;;;;;;;;;;18.15;61.68;92338.88;2067280;69;20484;-74
2023/05/10 10:05:07;;;;;;;;;;;;;;;18.29;59.58;92336.41;2068339;69;20062;-77
2023/05/10 10:07:32;;;;;;;;;;;;;;;18.26;59.24;92338.47;2055482;69;20054;-76
2023/05/10 10:09:58;;;;;;;;;;;;;;;18.41;59.01;92333.88;2055552;70;20112;-76
2023/05/10 10:12:25;;;;;;;;;;;;;;;18.55;58.33;92336.34;2055735;69;20054;-75
2023/05/10 10:14:51;;;;;;;;;;;;;;;18.07;58.96;92345.09;2055531;70;20096;-76
2023/05/10 10:17:17;;;;;;;;;;;;;;;18.20;59.36;92338.31;2055525;69;20445;-76
2023/05/10 10:19:43;;;;;;;;;;;;;;;17.85;61.09;92333.78;2068415;69;20055;-75
2023/05/10 10:22:11;;;;;;;;;;;;;;;17.62;60.32;92334.53;2055610;69;20039;-75
2023/05/10 10:24:38;;;;;;;;;;;;;;;17.56;61.40;92335.09;2055461;69;20073;-75
2023/05/10 10:27:21;;;;;;;;;;;;;;;17.93;61.21;92330.47;2055595;70;20061;-75
2023/05/10 10:30:07;;;;;;;;;;;;;;;17.76;60.17;92332.13;2055851;69;20054;-74
2023/05/10 10:32:42;;;;;;;;;;;;;;;17.99;60.57;92334.19;2055574;69;20059;-74
2023/05/10 10:35:08;;;;;;;;;;;;;;;18.24;59.64;92332.72;2060802;69;20082;-74
2023/05/10 10:37:48;;;;;;;;;;;;;;;18.51;58.48;92328.44;2058955;69;20138;-77
2023/05/10 10:40:24;;;;;;;;;;;;;;;18.46;59.77;92331.84;2058864;69;20088;-78
2023/05/10 10:42:50;;;;;;;;;;;;;;;18.26;59.13;92332.06;2058772;69;20049;-75
2023/05/10 10:45:16;;;;;;;;;;;;;;;18.22;58.66;92332.66;2058696;69;20054;-74
2023/05/10 10:47:42;;;;;;;;;;;;;;;18.49;57.08;92330.50;2058918;69;20169;-74
2023/05/10 10:50:12;;;;;;;;;;;;;;;18.71;58.12;92327.53;2058835;69;20054;-75
2023/05/10 10:52:41;;;;;;;;;;;;;;;18.73;58.84;92327.56;2058391;69;20410;-74
2023/05/10 10:55:06;;;;;;;;;;;;;;;18.83;56.84;92330.69;2065118;69;20050;-76
2023/05/10 10:57:33;;;;;;;;;;;;;;;18.41;55.97;92336.72;2060795;69;20053;-75
2023/05/10 11:00:19;;;;;;;;;;;;;;;18.58;55.27;92337.88;2071908;69;20066;-75
2023/05/10 11:02:51;;;;;;;;;;;;;;;17.88;55.28;92335.31;2057793;69;20058;-75
2023/05/10 11:05:24;;;;;;;;;;;;;;;18.43;57.49;92341.75;2057704;69;20054;-74
2023/05/10 11:07:57;;;;;;;;;;;;;;;18.28;60.34;92337.81;2058877;69;20126;-73
2023/05/10 11:10:23;;;;;;;;;;;;;;;18.35;59.28;92345.13;2071380;69;20080;-73
2023/05/10 11:12:52;;;;;;;;;;;;;;;18.12;60.23;92340.94;2067709;69;20413;-73
2023/05/10 11:15:18;;;;;;;;;;;;;;;17.75;59.63;92337.09;2057038;69;20046;-73
2023/05/10 11:17:43;;;;;;;;;;;;;;;17.85;60.21;92344.47;2056697;69;20052;-74
2023/05/10 11:20:10;;;;;;;;;;;;;;;17.77;60.87;92339.97;2056337;69;20054;-73
2023/05/10 11:22:51;;;;;;;;;;;;;;;17.77;61.22;92354.22;2057193;69;20050;-73
2023/05/10 11:25:17;;;;;;;;;;;;;;;17.84;61.17;92345.88;2065671;69;20058;-74
2023/05/10 11:27:44;;;;;;;;;;;;;;;17.69;62.19;92351.13;2058194;69;20178;-74
2023/05/10 11:30:11;;;;;;;;;;;;;;;16.67;61.95;92344.38;2056795;69;20046;-74
2023/05/10 11:32:40;;;;;;;;;;;;;;;17.30;62.96;92354.22;2055990;69;20123;-74
2023/05/10 11:35:10;;;;;;;;;;;;;;;16.64;65.67;92351.41;2055936;69;20544;-74
2023/05/10 11:37:35;;;;;;;;;;;;;;;16.24;65.70;92340.13;2057249;69;20073;-74
2023/05/10 11:40:04;;;;;;;;;;;;;;;16.02;66.02;92349.34;2071348;69;20078;-74
2023/05/10 11:42:30;;;;;;;;;;;;;;;16.91;63.80;92350.19;2057062;69;20046;-74
2023/05/10 11:44:57;;;;;;;;;;;;;;;17.37;62.69;92358.72;2058660;69;20056;-74
2023/05/10 11:47:23;;;;;;;;;;;;;;;17.12;62.41;92357.94;2058558;69;20078;-74
2023/05/10 11:49:50;;;;;;;;;;;;;;;17.15;62.48;92361.59;2058691;69;20062;-74
2023/05/10 11:52:15;;;;;;;;;;;;;;;17.49;62.19;92359.06;2058656;69;20441;-74
2023/05/10 11:54:54;;;;;;;;;;;;;;;17.42;62.24;92358.16;2058537;69;20074;-74
2023/05/10 11:57:20;;;;;;;;;;;;;;;17.37;61.72;92362.28;2058711;69;20528;-74
2023/05/10 11:59:46;;;;;;;;;;;;;;;17.20;63.21;92372.41;2071635;69;20045;-74
2023/05/10 12:02:13;;;;;;;;;;;;;;;17.43;62.53;92361.72;2058607;69;20502;-76
2023/05/10 12:04:39;;;;;;;;;;;;;;;17.25;62.19;92370.44;2058621;69;20053;-75
2023/05/10 12:07:06;;;;;;;;;;;;;;;16.67;63.83;92369.97;2068805;69;20049;-74
2023/05/10 12:09:31;;;;;;;;;;;;;;;16.97;62.98;92367.41;2058439;69;20070;-74
2023/05/10 12:11:58;;;;;;;;;;;;;;;16.83;63.88;92376.22;2058677;69;20046;-73
2023/05/10 12:14:24;;;;;;;;;;;;;;;16.73;63.34;92370.94;2058652;69;20111;-72
2023/05/10 12:16:50;;;;;;;;;;;;;;;16.27;66.05;92372.91;2058553;69;20054;-74
2023/05/10 12:19:22;;;;;;;;;;;;;;;16.04;66.34;92377.09;2071459;69;20446;-74
2023/05/10 12:21:48;;;;;;;;;;;;;;;15.44;68.00;92377.03;2058673;69;20077;-73
2023/05/10 12:24:17;;;;;;;;;;;;;;;15.05;67.58;92374.81;2059224;69;20175;-73
2023/05/10 12:26:44;;;;;;;;;;;;;;;15.14;66.73;92378.69;2059076;69;20042;-73
2023/05/10 12:29:21;;;;;;;;;;;;;;;15.14;66.89;92373.75;2071447;69;20078;-74
2023/05/10 12:31:51;;;;;;;;;;;;;;;14.78;68.57;92383.63;2059266;69;20149;-74
2023/05/10 12:34:27;;;;;;;;;;;;;;;15.65;66.42;92377.78;2058957;69;20449;-74
2023/05/10 12:36:54;;;;;;;;;;;;;;;15.88;65.63;92385.00;2071909;69;20046;-74
2023/05/10 12:39:22;;;;;;;;;;;;;;;16.31;66.12;92389.34;2071875;69;20058;-75
2023/05/10 12:41:48;;;;;;;;;;;;;;;16.29;64.22;92389.28;2058943;69;20046;-74
2023/05/10 12:44:14;;;;;;;;;;;;;;;15.86;65.18;92387.78;2059026;69;20054;-73
2023/05/10 12:46:39;;;;;;;;;;;;;;;16.09;64.81;92392.88;2058999;69;20056;-73
2023/05/10 12:49:06;;;;;;;;;;;;;;;16.39;64.92;92392.47;2058869;69;20118;-73